createdAt,value
2022-09-25T00:00:58.135Z,9.38
2022-09-25T00:03:26.709Z,8.63
2022-09-25T00:05:53.826Z,9.05
2022-09-25T00:08:20.446Z,8.52
2022-09-25T00:10:49.770Z,8.75
2022-09-25T00:13:18.172Z,8.48
2022-09-25T00:15:49.114Z,8.27
2022-09-25T00:18:16.072Z,8.10
2022-09-25T00:20:43.058Z,8.70
2022-09-25T00:23:09.714Z,8.02
2022-09-25T00:25:36.863Z,7.10
2022-09-25T00:28:03.960Z,8.13
2022-09-25T00:30:47.836Z,8.50
2022-09-25T00:33:14.493Z,8.73
2022-09-25T00:35:41.032Z,7.80
2022-09-25T00:38:07.524Z,6.97
2022-09-25T00:40:34.255Z,6.90
2022-09-25T00:43:00.943Z,6.57
2022-09-25T00:45:27.686Z,6.20
2022-09-25T00:48:05.818Z,6.70
2022-09-25T00:50:36.972Z,6.65
2022-09-25T00:53:09.188Z,6.43
2022-09-25T00:55:36.253Z,6.30
2022-09-25T00:58:03.238Z,6.57
2022-09-25T01:00:30.878Z,6.57
2022-09-25T01:02:57.697Z,5.85
2022-09-25T01:05:32.855Z,6.20
2022-09-25T01:08:01.627Z,5.88
2022-09-25T01:10:28.629Z,5.85
2022-09-25T01:12:56.560Z,5.18
2022-09-25T01:15:33.723Z,5.72
2022-09-25T01:18:20.227Z,5.35
2022-09-25T01:21:07.773Z,5.15
2022-09-25T01:23:58.286Z,5.35
2022-09-25T01:26:36.130Z,4.65
2022-09-25T01:29:11.652Z,4.95
2022-09-25T01:31:41.236Z,4.65
2022-09-25T01:34:26.968Z,5.38
2022-09-25T01:36:59.391Z,4.78
2022-09-25T01:39:35.954Z,4.70
2022-09-25T01:42:16.352Z,6.28
2022-09-25T01:45:16.945Z,4.78
2022-09-25T01:47:46.075Z,5.30
2022-09-25T01:50:16.576Z,4.95
2022-09-25T01:52:48.704Z,5.00
2022-09-25T01:55:24.539Z,4.18
2022-09-25T01:57:55.440Z,4.82
2022-09-25T02:00:23.822Z,5.55
2022-09-25T02:02:55.447Z,4.90
2022-09-25T02:05:39.336Z,4.57
2022-09-25T02:08:08.813Z,4.32
2022-09-25T02:10:38.428Z,5.15
2022-09-25T02:13:14.593Z,4.95
2022-09-25T02:15:56.583Z,4.85
2022-09-25T02:18:42.039Z,4.30
2022-09-25T02:21:17.434Z,4.30
2022-09-25T02:23:54.005Z,4.30
2022-09-25T02:26:29.753Z,4.35
2022-09-25T02:28:57.001Z,4.85
2022-09-25T02:31:32.755Z,4.57
2022-09-25T02:34:03.939Z,3.92
2022-09-25T02:36:35.426Z,4.20
2022-09-25T02:39:06.597Z,4.00
2022-09-25T02:41:47.364Z,4.93
2022-09-25T02:44:24.423Z,4.55
2022-09-25T02:47:02.865Z,4.43
2022-09-25T02:49:39.735Z,4.00
2022-09-25T02:52:14.263Z,4.85
2022-09-25T02:54:48.064Z,4.47
2022-09-25T02:57:20.241Z,4.32
2022-09-25T02:59:52.989Z,4.40
2022-09-25T03:02:20.032Z,4.28
2022-09-25T03:04:48.847Z,4.43
2022-09-25T03:07:17.014Z,3.88
2022-09-25T03:09:46.999Z,4.63
2022-09-25T03:12:14.838Z,5.60
2022-09-25T03:14:41.550Z,4.50
2022-09-25T03:17:09.694Z,4.28
2022-09-25T03:19:36.596Z,4.30
2022-09-25T03:22:05.858Z,3.90
2022-09-25T03:24:32.703Z,4.65
2022-09-25T03:26:59.301Z,5.18
2022-09-25T03:29:26.071Z,4.35
2022-09-25T03:31:52.604Z,4.88
2022-09-25T03:34:19.862Z,4.20
2022-09-25T03:36:49.653Z,4.43
2022-09-25T03:39:18.073Z,4.72
2022-09-25T03:41:45.212Z,4.28
2022-09-25T03:44:12.304Z,4.72
2022-09-25T03:46:39.387Z,4.20
2022-09-25T03:49:06.238Z,4.30
2022-09-25T03:51:33.906Z,4.38
2022-09-25T03:54:00.643Z,4.60
2022-09-25T03:56:28.520Z,4.63
2022-09-25T03:58:55.962Z,4.13
2022-09-25T04:01:23.608Z,4.63
2022-09-25T04:03:50.886Z,5.40
2022-09-25T04:06:20.394Z,4.50
2022-09-25T04:08:48.265Z,4.97
2022-09-25T04:11:16.118Z,4.95
2022-09-25T04:13:44.189Z,5.20
2022-09-25T04:16:11.751Z,5.88
2022-09-25T04:18:38.800Z,5.30
2022-09-25T04:21:08.468Z,5.18
2022-09-25T04:23:35.999Z,5.38
2022-09-25T04:26:02.604Z,5.38
2022-09-25T04:28:31.703Z,5.55
2022-09-25T04:30:58.769Z,5.70
2022-09-25T04:33:44.121Z,5.22
2022-09-25T04:36:10.760Z,4.90
2022-09-25T04:38:37.597Z,5.32
2022-09-25T04:41:04.445Z,5.38
2022-09-25T04:43:32.155Z,4.90
2022-09-25T04:46:06.639Z,5.05
2022-09-25T04:48:34.301Z,5.10
2022-09-25T04:51:00.983Z,5.72
2022-09-25T04:53:30.046Z,5.32
2022-09-25T04:56:04.540Z,5.25
2022-09-25T04:58:31.693Z,4.82
2022-09-25T05:01:03.976Z,5.20
2022-09-25T05:03:30.753Z,5.03
2022-09-25T05:05:57.464Z,5.78
2022-09-25T05:08:23.984Z,5.80
2022-09-25T05:10:50.512Z,5.85
2022-09-25T05:13:17.253Z,6.20
2022-09-25T05:15:44.013Z,5.82
2022-09-25T05:18:17.517Z,6.70
2022-09-25T05:20:44.465Z,5.68
2022-09-25T05:23:11.077Z,6.50
2022-09-25T05:25:37.951Z,6.18
2022-09-25T05:28:04.652Z,5.65
2022-09-25T05:30:33.035Z,5.60
2022-09-25T05:33:00.046Z,5.50
2022-09-25T05:35:29.081Z,6.10
2022-09-25T05:37:55.716Z,6.25
2022-09-25T05:40:23.795Z,5.88
2022-09-25T05:42:51.543Z,6.72
2022-09-25T05:45:19.319Z,5.95
2022-09-25T05:47:45.846Z,6.13
2022-09-25T05:50:14.491Z,6.53
2022-09-25T05:52:41.337Z,6.22
2022-09-25T05:55:09.760Z,6.25
2022-09-25T05:57:37.161Z,6.25
2022-09-25T06:00:09.521Z,5.95
2022-09-25T06:02:36.077Z,6.40
2022-09-25T06:05:02.688Z,6.45
2022-09-25T06:07:29.185Z,6.03
2022-09-25T06:09:55.773Z,7.20
2022-09-25T06:12:25.000Z,6.47
2022-09-25T06:14:52.484Z,6.82
2022-09-25T06:17:19.520Z,6.53
2022-09-25T06:19:46.266Z,6.55
2022-09-25T06:22:13.018Z,6.80
2022-09-25T06:24:39.965Z,7.18
2022-09-25T06:27:07.511Z,6.95
2022-09-25T06:29:34.086Z,7.38
2022-09-25T06:32:00.711Z,7.22
2022-09-25T06:34:28.386Z,7.10
2022-09-25T06:36:55.168Z,7.38
2022-09-25T06:39:21.851Z,7.20
2022-09-25T06:41:48.636Z,6.85
2022-09-25T06:44:15.220Z,7.18
2022-09-25T06:46:54.168Z,7.20
2022-09-25T06:49:21.556Z,7.00
2022-09-25T06:51:48.449Z,7.50
2022-09-25T06:54:14.968Z,6.65
2022-09-25T06:56:41.608Z,7.28
2022-09-25T06:59:10.595Z,6.97
2022-09-25T07:01:37.143Z,7.10
2022-09-25T07:04:04.190Z,7.63
2022-09-25T07:06:32.060Z,7.60
2022-09-25T07:08:58.837Z,7.50
2022-09-25T07:11:28.247Z,7.15
2022-09-25T07:13:57.744Z,7.50
2022-09-25T07:16:27.150Z,7.90
2022-09-25T07:19:00.785Z,7.55
2022-09-25T07:21:30.601Z,6.57
2022-09-25T07:23:58.316Z,7.00
2022-09-25T07:26:27.301Z,7.38
2022-09-25T07:29:04.591Z,7.00
2022-09-25T07:31:33.220Z,7.80
2022-09-25T07:34:08.940Z,7.45
2022-09-25T07:36:38.683Z,6.80
2022-09-25T07:39:06.039Z,6.80
2022-09-25T07:41:32.934Z,7.47
2022-09-25T07:44:18.031Z,8.15
2022-09-25T07:46:46.568Z,8.23
2022-09-25T07:49:13.963Z,7.55
2022-09-25T07:51:40.551Z,7.20
2022-09-25T07:54:07.352Z,6.93
2022-09-25T07:56:38.438Z,7.95
2022-09-25T07:59:05.150Z,8.45
2022-09-25T08:01:31.840Z,8.30
2022-09-25T08:03:58.441Z,7.95
2022-09-25T08:06:25.005Z,8.43
2022-09-25T08:08:51.539Z,8.20
2022-09-25T08:11:18.507Z,8.32
2022-09-25T08:13:45.869Z,7.65
2022-09-25T08:16:14.768Z,7.63
2022-09-25T08:18:42.773Z,8.65
2022-09-25T08:21:10.377Z,7.20
2022-09-25T08:23:36.977Z,7.88
2022-09-25T08:26:03.517Z,8.40
2022-09-25T08:28:30.053Z,7.82
2022-09-25T08:30:59.366Z,8.13
2022-09-25T08:33:27.118Z,8.82
2022-09-25T08:36:01.246Z,8.35
2022-09-25T08:38:29.102Z,8.18
2022-09-25T08:40:59.926Z,8.10
2022-09-25T08:43:26.704Z,8.93
2022-09-25T08:46:12.740Z,7.80
2022-09-25T08:49:10.238Z,8.07
2022-09-25T08:51:38.476Z,8.40
2022-09-25T08:54:05.657Z,8.05
2022-09-25T08:56:34.346Z,8.30
2022-09-25T08:59:31.494Z,8.73
2022-09-25T09:02:01.246Z,8.63
2022-09-25T09:04:43.135Z,8.52
2022-09-25T09:07:29.175Z,7.97
2022-09-25T09:10:04.065Z,7.93
2022-09-25T09:12:37.921Z,8.50
2022-09-25T09:15:26.203Z,7.07
2022-09-25T09:17:53.226Z,8.10
2022-09-25T09:20:25.237Z,8.60
2022-09-25T09:22:53.657Z,8.57
2022-09-25T09:25:29.324Z,7.72
2022-09-25T09:28:23.554Z,7.72
2022-09-25T09:31:20.260Z,7.53
2022-09-25T09:34:01.020Z,6.43
2022-09-25T09:36:38.362Z,7.70
2022-09-25T09:39:20.838Z,6.75
2022-09-25T09:41:59.254Z,6.60
2022-09-25T09:44:35.801Z,7.10
2022-09-25T09:47:22.640Z,6.97
2022-09-25T09:49:53.562Z,6.68
2022-09-25T09:52:33.605Z,6.25
2022-09-25T09:55:05.079Z,6.43
2022-09-25T09:57:38.129Z,6.50
2022-09-25T10:00:12.326Z,6.15
2022-09-25T10:02:42.744Z,6.82
2022-09-25T10:05:17.324Z,5.95
2022-09-25T10:07:44.025Z,5.63
2022-09-25T10:10:17.190Z,5.97
2022-09-25T10:12:47.450Z,6.18
2022-09-25T10:15:21.255Z,6.35
2022-09-25T10:17:48.198Z,6.18
2022-09-25T10:20:25.097Z,6.40
2022-09-25T10:22:56.518Z,5.93
2022-09-25T10:25:40.141Z,6.32
2022-09-25T10:28:23.053Z,5.40
2022-09-25T10:30:51.062Z,5.53
2022-09-25T10:33:25.684Z,5.32
2022-09-25T10:35:55.108Z,6.10
2022-09-25T10:38:30.097Z,5.88
2022-09-25T10:41:00.622Z,5.05
2022-09-25T10:43:27.161Z,4.10
2022-09-25T10:46:14.305Z,5.35
2022-09-25T10:49:02.649Z,5.30
2022-09-25T10:51:29.558Z,6.30
2022-09-25T10:54:13.125Z,5.40
2022-09-25T10:56:39.982Z,5.10
2022-09-25T10:59:18.776Z,5.47
2022-09-25T11:01:46.336Z,5.30
2022-09-25T11:04:20.686Z,5.95
2022-09-25T11:06:52.489Z,5.75
2022-09-25T11:09:22.148Z,5.57
2022-09-25T11:11:49.947Z,5.30
2022-09-25T11:14:32.961Z,5.43
2022-09-25T11:17:01.490Z,5.50
2022-09-25T11:19:34.799Z,5.78
2022-09-25T11:22:08.199Z,5.50
2022-09-25T11:25:02.765Z,5.50
2022-09-25T11:27:33.874Z,5.72
2022-09-25T11:30:09.278Z,5.18
2022-09-25T11:32:57.113Z,5.40
2022-09-25T11:36:00.508Z,5.00
2022-09-25T11:39:08.407Z,5.13
2022-09-25T11:41:42.434Z,5.15
2022-09-25T11:44:13.955Z,5.75
2022-09-25T11:47:08.388Z,5.45
2022-09-25T11:49:40.466Z,5.93
2022-09-25T11:52:28.350Z,5.40
2022-09-25T11:55:10.159Z,5.63
2022-09-25T11:58:08.175Z,5.47
2022-09-25T12:00:53.611Z,4.53
2022-09-25T12:03:42.209Z,4.88
2022-09-25T12:06:24.698Z,4.72
2022-09-25T12:08:54.830Z,5.07
2022-09-25T12:11:27.269Z,5.20
2022-09-25T12:14:11.862Z,4.07
2022-09-25T12:17:03.139Z,4.05
2022-09-25T12:19:44.739Z,4.13
2022-09-25T12:22:27.511Z,4.20
2022-09-25T12:25:06.511Z,4.20
2022-09-25T12:27:47.600Z,4.80
2022-09-25T12:30:21.460Z,3.95
2022-09-25T12:33:08.248Z,3.58
2022-09-25T12:36:00.821Z,3.85
2022-09-25T12:38:41.976Z,3.88
2022-09-25T12:41:40.839Z,4.60
2022-09-25T12:44:26.502Z,4.63
2022-09-25T12:47:16.943Z,4.75
2022-09-25T12:49:49.597Z,5.47
2022-09-25T12:52:25.787Z,5.85
2022-09-25T12:54:58.872Z,4.97
2022-09-25T12:57:31.914Z,5.20
2022-09-25T13:00:06.738Z,4.85
2022-09-25T13:03:11.658Z,5.32
2022-09-25T13:05:50.268Z,4.95
2022-09-25T13:08:26.019Z,5.20
2022-09-25T13:10:54.048Z,4.90
2022-09-25T13:13:28.886Z,4.03
2022-09-25T13:16:00.806Z,5.30
2022-09-25T13:18:30.828Z,6.78
2022-09-25T13:20:58.672Z,5.93
2022-09-25T13:23:40.774Z,5.75
2022-09-25T13:26:16.492Z,6.05
2022-09-25T13:28:58.839Z,5.13
2022-09-25T13:31:28.197Z,4.93
2022-09-25T13:34:00.724Z,5.10
2022-09-25T13:36:38.115Z,6.53
2022-09-25T13:39:25.992Z,4.80
2022-09-25T13:42:04.445Z,4.70
2022-09-25T13:45:06.755Z,5.18
2022-09-25T13:47:43.183Z,5.72
2022-09-25T13:50:12.501Z,5.47
2022-09-25T13:52:39.017Z,5.00
2022-09-25T13:55:14.890Z,6.22
2022-09-25T13:58:02.296Z,5.93
2022-09-25T14:00:37.735Z,5.88
2022-09-25T14:03:05.497Z,5.47
2022-09-25T14:05:37.853Z,5.47
2022-09-25T14:08:09.378Z,6.68
2022-09-25T14:10:36.170Z,6.18
2022-09-25T14:13:06.925Z,5.93
2022-09-25T14:15:35.662Z,6.25
2022-09-25T14:18:17.930Z,6.65
2022-09-25T14:20:46.845Z,5.70
2022-09-25T14:23:15.072Z,5.57
2022-09-25T14:25:44.807Z,4.78
2022-09-25T14:28:20.112Z,4.93
2022-09-25T14:30:56.861Z,5.30
2022-09-25T14:33:45.296Z,4.63
2022-09-25T14:36:22.400Z,4.80
2022-09-25T14:38:59.111Z,4.80
2022-09-25T14:42:06.992Z,5.03
2022-09-25T14:44:57.681Z,4.97
2022-09-25T14:47:31.004Z,5.15
2022-09-25T14:49:58.330Z,5.82
2022-09-25T14:52:27.799Z,5.65
2022-09-25T14:54:56.464Z,5.25
2022-09-25T14:57:31.131Z,5.75
2022-09-25T15:00:01.200Z,5.72
2022-09-25T15:02:34.377Z,5.68
2022-09-25T15:05:19.494Z,5.45
2022-09-25T15:07:47.049Z,5.68
2022-09-25T15:10:29.769Z,5.18
2022-09-25T15:13:16.141Z,5.70
2022-09-25T15:16:04.519Z,5.30
2022-09-25T15:18:31.729Z,5.22
2022-09-25T15:20:58.748Z,6.07
2022-09-25T15:23:25.468Z,5.80
2022-09-25T15:25:54.881Z,5.90
2022-09-25T15:28:25.552Z,5.88
2022-09-25T15:31:00.542Z,5.70
2022-09-25T15:33:29.608Z,5.93
2022-09-25T15:35:58.506Z,5.47
2022-09-25T15:38:32.726Z,5.30
2022-09-25T15:40:59.799Z,5.55
2022-09-25T15:43:26.700Z,5.65
2022-09-25T15:46:19.058Z,4.95
2022-09-25T15:48:54.274Z,4.78
2022-09-25T15:51:25.397Z,4.85
2022-09-25T15:53:54.697Z,4.93
2022-09-25T15:56:23.383Z,5.07
2022-09-25T15:59:02.666Z,4.90
2022-09-25T16:01:50.117Z,4.80
2022-09-25T16:04:58.457Z,4.60
2022-09-25T16:07:38.160Z,4.15
2022-09-25T16:10:11.269Z,4.32
2022-09-25T16:12:46.050Z,4.25
2022-09-25T16:15:27.755Z,4.45
2022-09-25T16:18:05.761Z,4.13
2022-09-25T16:20:37.473Z,4.53
2022-09-25T16:23:20.178Z,4.07
2022-09-25T16:25:46.832Z,4.30
2022-09-25T16:28:34.565Z,5.13
2022-09-25T16:31:04.348Z,4.18
2022-09-25T16:33:35.136Z,3.83
2022-09-25T16:36:16.194Z,4.50
2022-09-25T16:39:11.745Z,4.30
2022-09-25T16:41:41.090Z,4.90
2022-09-25T16:44:18.077Z,4.40
2022-09-25T16:46:52.389Z,4.60
2022-09-25T16:49:22.587Z,4.80
2022-09-25T16:51:50.204Z,4.47
2022-09-25T16:54:21.642Z,4.35
2022-09-25T16:56:49.132Z,4.65
2022-09-25T16:59:16.386Z,4.45
2022-09-25T17:01:43.979Z,4.38
2022-09-25T17:04:12.151Z,4.78
2022-09-25T17:06:40.953Z,4.57
2022-09-25T17:09:12.529Z,4.13
2022-09-25T17:11:40.793Z,5.20
2022-09-25T17:14:08.048Z,4.78
2022-09-25T17:16:35.196Z,4.70
2022-09-25T17:19:01.848Z,4.60
2022-09-25T17:21:28.525Z,5.25
2022-09-25T17:23:55.226Z,5.30
2022-09-25T17:26:24.095Z,4.82
2022-09-25T17:28:51.376Z,4.43
2022-09-25T17:31:22.147Z,4.97
2022-09-25T17:33:52.315Z,5.00
2022-09-25T17:36:18.937Z,4.50
2022-09-25T17:38:45.605Z,4.57
2022-09-25T17:41:22.064Z,4.60
2022-09-25T17:43:49.206Z,3.97
2022-09-25T17:46:19.268Z,4.40
2022-09-25T17:48:50.176Z,4.57
2022-09-25T17:51:24.469Z,4.20
2022-09-25T17:53:52.952Z,4.88
2022-09-25T17:56:19.878Z,4.70
2022-09-25T17:58:46.537Z,5.05
2022-09-25T18:01:22.111Z,4.32
2022-09-25T18:03:53.204Z,5.88
2022-09-25T18:06:20.121Z,4.15
2022-09-25T18:08:48.034Z,4.68
2022-09-25T18:11:15.306Z,3.88
2022-09-25T18:13:42.197Z,4.07
2022-09-25T18:16:17.834Z,4.70
2022-09-25T18:19:03.547Z,5.38
2022-09-25T18:21:48.945Z,6.03
2022-09-25T18:24:15.514Z,5.55
2022-09-25T18:26:43.058Z,5.63
2022-09-25T18:29:14.181Z,6.05
2022-09-25T18:31:40.999Z,6.47
2022-09-25T18:34:07.671Z,7.10
2022-09-25T18:36:34.727Z,6.70
2022-09-25T18:39:01.364Z,7.18
2022-09-25T18:41:27.990Z,7.63
2022-09-25T18:43:54.774Z,7.10
2022-09-25T18:46:21.659Z,6.50
2022-09-25T18:48:48.562Z,6.97
2022-09-25T18:51:15.888Z,5.78
2022-09-25T18:53:43.025Z,6.13
2022-09-25T18:56:09.720Z,5.88
2022-09-25T18:58:36.499Z,5.65
2022-09-25T19:01:06.191Z,7.05
2022-09-25T19:03:35.914Z,6.22
2022-09-25T19:06:06.866Z,5.60
2022-09-25T19:08:34.373Z,5.20
2022-09-25T19:11:01.063Z,5.13
2022-09-25T19:13:28.815Z,5.20
2022-09-25T19:15:56.342Z,5.13
2022-09-25T19:18:23.500Z,5.10
2022-09-25T19:20:54.597Z,4.20
2022-09-25T19:23:25.798Z,4.25
2022-09-25T19:25:57.750Z,4.72
2022-09-25T19:28:24.325Z,4.78
2022-09-25T19:30:58.532Z,3.55
2022-09-25T19:33:25.985Z,4.63
2022-09-25T19:35:59.833Z,4.35
2022-09-25T19:38:26.977Z,4.28
2022-09-25T19:40:53.649Z,4.30
2022-09-25T19:43:20.385Z,4.15
2022-09-25T19:45:54.793Z,3.95
2022-09-25T19:48:22.703Z,3.88
2022-09-25T19:50:49.765Z,3.70
2022-09-25T19:53:18.986Z,4.30
2022-09-25T19:55:52.755Z,3.65
2022-09-25T19:58:23.090Z,4.30
2022-09-25T20:00:50.924Z,3.88
2022-09-25T20:03:18.188Z,3.80
2022-09-25T20:05:45.553Z,4.50
2022-09-25T20:08:13.298Z,4.25
2022-09-25T20:10:40.147Z,3.78
2022-09-25T20:13:06.796Z,4.32
2022-09-25T20:15:33.856Z,4.30
2022-09-25T20:18:00.600Z,4.10
2022-09-25T20:20:29.621Z,4.30
2022-09-25T20:22:56.942Z,3.80
2022-09-25T20:25:24.714Z,4.68
2022-09-25T20:27:52.382Z,3.67
2022-09-25T20:30:19.599Z,3.63
2022-09-25T20:32:46.459Z,3.78
2022-09-25T20:35:13.285Z,3.88
2022-09-25T20:37:39.992Z,3.60
2022-09-25T20:40:06.920Z,3.47
2022-09-25T20:42:34.049Z,4.03
2022-09-25T20:45:00.678Z,3.92
2022-09-25T20:47:33.589Z,3.58
2022-09-25T20:50:00.910Z,4.20
2022-09-25T20:52:28.366Z,3.47
2022-09-25T20:54:57.060Z,3.97
2022-09-25T20:57:23.652Z,4.25
2022-09-25T20:59:50.344Z,4.32
2022-09-25T21:02:17.075Z,4.13
2022-09-25T21:04:45.041Z,3.78
2022-09-25T21:07:16.556Z,3.65
2022-09-25T21:09:43.727Z,3.70
2022-09-25T21:12:10.278Z,3.53
2022-09-25T21:14:37.222Z,3.53
2022-09-25T21:17:04.058Z,3.17
2022-09-25T21:19:31.920Z,3.70
2022-09-25T21:21:58.553Z,3.50
2022-09-25T21:24:25.141Z,3.30
2022-09-25T21:26:51.781Z,3.95
2022-09-25T21:29:18.754Z,4.47
2022-09-25T21:31:49.756Z,3.83
2022-09-25T21:34:18.212Z,4.43
2022-09-25T21:36:46.139Z,3.97
2022-09-25T21:39:13.391Z,3.75
2022-09-25T21:41:40.195Z,3.63
2022-09-25T21:44:11.798Z,3.65
2022-09-25T21:46:38.583Z,4.00
2022-09-25T21:49:06.947Z,3.83
2022-09-25T21:51:46.011Z,3.67
2022-09-25T21:54:13.839Z,4.10
2022-09-25T21:56:41.452Z,3.53
2022-09-25T21:59:09.346Z,3.83
2022-09-25T22:01:38.880Z,3.53
2022-09-25T22:04:06.331Z,3.53
2022-09-25T22:06:35.831Z,4.00
2022-09-25T22:09:05.492Z,3.97
2022-09-25T22:11:32.201Z,3.65
2022-09-25T22:14:00.314Z,3.80
2022-09-25T22:16:38.839Z,3.97
2022-09-25T22:19:12.906Z,3.45
2022-09-25T22:21:40.390Z,2.90
2022-09-25T22:24:07.308Z,3.47
2022-09-25T22:26:36.303Z,3.70
2022-09-25T22:29:03.341Z,2.75
2022-09-25T22:31:31.581Z,3.35
2022-09-25T22:34:00.701Z,3.13
2022-09-25T22:36:28.258Z,3.10
2022-09-25T22:38:55.422Z,3.30
2022-09-25T22:41:22.250Z,3.10
2022-09-25T22:43:53.083Z,2.75
2022-09-25T22:46:20.885Z,3.22
2022-09-25T22:48:47.703Z,3.00
2022-09-25T22:51:19.907Z,3.25
2022-09-25T22:53:47.058Z,2.75
2022-09-25T22:56:14.774Z,3.05
2022-09-25T22:58:42.440Z,3.10
2022-09-25T23:01:17.904Z,2.90
2022-09-25T23:03:44.789Z,2.85
2022-09-25T23:06:11.442Z,3.00
2022-09-25T23:08:38.098Z,2.90
2022-09-25T23:11:08.176Z,2.38
2022-09-25T23:13:35.693Z,2.65
2022-09-25T23:16:07.364Z,2.47
2022-09-25T23:18:35.712Z,2.80
2022-09-25T23:21:02.368Z,1.90
2022-09-25T23:23:29.127Z,2.72
2022-09-25T23:26:00.970Z,1.63
2022-09-25T23:28:27.507Z,1.90
2022-09-25T23:30:54.180Z,1.73
2022-09-25T23:33:20.769Z,1.95
2022-09-25T23:35:47.292Z,2.33
2022-09-25T23:38:13.950Z,1.58
2022-09-25T23:40:40.591Z,1.80
2022-09-25T23:43:07.191Z,1.85
2022-09-25T23:45:33.779Z,1.90
2022-09-25T23:48:00.489Z,1.60
2022-09-25T23:50:27.101Z,1.70
2022-09-25T23:52:53.658Z,1.65
2022-09-25T23:55:20.186Z,1.83
2022-09-25T23:57:46.809Z,1.48
